الصفحة الرئيسية
METAR-TAF:

METAR-TAF

مطار :

لارنكا, قبرص

مطار لارنكا الدولي

دائرة عرض: 34-53N, خط طول: 033-38E, ارتفاع: 2 متر

مراقبة الطقس الحالي

تاريخ ووقت الإصدار 14 دقيقة قبل الساعة 03:30UTC
ريح 6 عقدة من الغرب
درجة الحرارة 8°درجة مئوية
الرطوبة 71%
ضغط 1002 hPa
الرؤية 10 كم أو أكثر
غيوم قليلة على ارتفاع 3000 قدم
غيوم متفرقة على ارتفاع 6000 قدم

METAR: LCLK 190330Z 28006KT 9999 FEW030 SCT060 08/03 Q1002 NOSIG

زمن: 05:44 (03:44 UTC)

توقعات

تاريخ ووقت الإصدار 4ساعات و 14 دقيقة قبل الساعة 23:30UTC
التوقعات صالحة من19 الساعة 00 UTC إلى 19 الساعة 24 UTC
ريح 18 عقدة من الشمال/الشمال الغربي
الرؤية 10 كم أو أكثر
غيوم متفرقة على ارتفاع 2500 قدم
نظرية الاحتمالات 30% :
مؤقت
من 19 الساعة 00 UTC إلى 19 الساعة 04 UTC
الرؤية: 5000 متر
غيوم متفرقة على ارتفاع 3000 قدم, مزن ركامية عمودية.
زخات من المطر
أصبح
من 19 الساعة 19 UTC إلى 19 الساعة 22 UTC
ريح 8 عقدة من الشمال الغربي

TAF: LCLK 182330Z 1900/1924 34018KT 9999 SCT025 PROB30 TEMPO 1900/1904 5000 SHRA SCT030TCU BECMG 1919/1922 32008KT

أرصاد الطقس والتوقعات من أكثر من 4000 مطار (تقارير الطقس للمطار METAR والتنبؤ بالطقس بالمطارTAF).

المحطات المتاحة هي النقط الصفراء والحمراء على الخريطة.

حرك المؤشر فوق النقطة لمعرفة اسم المحطة.

ثم انقر لمعرفة أرصاد وتوقعات الطقس.

لتغيير الخارطة: اضغط على الأزرار الخضراء مع رمز الصليب الأسود للتكبير. على الزر الأخضر مع شرطة للتصغير، أو على الأسهم الخضراء للخرائط المجاورة.


METAR-TAF: